Time;durP1;ratioP1;P1;durP2;ratioP2;P2;SDS_P1;SDS_P2;PMS_P1;PMS_P2;Temp;Humidity;BMP_temperature;BMP_pressure;BME280_temperature;BME280_humidity;BME280_pressure;Samples;Min_cycle;Max_cycle;Signal;HPM_P1;HPM_P2
2023/09/12 00:01:17;;;;;;;0.10;0.10;;;;;;;;;;5037022;28;20041;-78
2023/09/12 00:03:42;;;;;;;0.10;0.10;;;;;;;;;;5034661;28;20291;-80
2023/09/12 00:06:07;;;;;;;0.10;0.10;;;;;;;;;;5033774;28;20037;-80
2023/09/12 00:08:33;;;;;;;0.10;0.10;;;;;;;19.53;nan;99955.94;5033297;28;20626;-80
2023/09/12 00:11:12;;;;;;;0.10;0.10;;;;;;;19.48;nan;99920.94;5027024;28;20030;-81
2023/09/12 00:13:41;;;;;;;0.10;0.10;;;;;;;;;;5032075;28;20044;-80
2023/09/12 00:16:06;;;;;;;0.10;0.10;;;;;;;;;;5033303;28;20207;-80
2023/09/12 00:18:34;;;;;;;0.10;0.10;;;;;;;19.31;nan;99957.44;5017555;28;20526;-79
2023/09/12 00:21:00;;;;;;;0.00;0.00;;;;;;;19.26;nan;99928.63;5033711;28;20022;-81
2023/09/12 00:23:26;;;;;;;0.10;0.10;;;;;;;19.24;nan;99956.69;5025495;28;20033;-82
2023/09/12 00:25:54;;;;;;;0.10;0.10;;;;;;;19.24;nan;99952.16;5022498;28;20037;-81
2023/09/12 00:28:20;;;;;;;0.10;0.10;;;;;;;19.26;nan;99946.56;5032393;28;20127;-80
2023/09/12 00:30:46;;;;;;;0.10;0.10;;;;;;;19.24;nan;99922.66;5018436;28;20030;-79
2023/09/12 00:33:11;;;;;;;0.10;0.10;;;;;;;;;;5030524;28;20040;-80
2023/09/12 00:35:36;;;;;;;0.10;0.10;;;;;;;;;;5031176;28;20117;-81
2023/09/12 00:38:02;;;;;;;0.10;0.10;;;;;;;19.25;nan;99948.41;5040469;28;20287;-80
2023/09/12 00:40:27;;;;;;;0.10;0.10;;;;;;;19.29;nan;99954.97;5033293;28;20037;-80
2023/09/12 00:42:52;;;;;;;0.00;0.00;;;;;;;;;;5035518;28;20046;-81
2023/09/12 00:45:17;;;;;;;0.10;0.10;;;;;;;19.47;nan;99929.19;5029192;28;20402;-79
2023/09/12 00:47:43;;;;;;;0.10;0.10;;;;;;;19.49;nan;99890.38;5026952;28;20030;-80
2023/09/12 00:50:09;;;;;;;0.10;0.10;;;;;;;;;;5029304;28;20614;-81
2023/09/12 00:52:35;;;;;;;0.10;0.10;;;;;;;;;;5019976;28;20034;-81
2023/09/12 00:55:00;;;;;;;0.10;0.10;;;;;;;;;;5018229;28;20407;-81
2023/09/12 00:57:26;;;;;;;0.10;0.10;;;;;;;19.27;nan;99926.75;5021211;28;20034;-80
2023/09/12 00:59:51;;;;;;;0.00;0.00;;;;;;;;;;5013522;28;20030;-80
2023/09/12 01:02:18;;;;;;;0.10;0.10;;;;;;;19.19;nan;99911.81;5023871;28;20578;-80
2023/09/12 01:04:44;;;;;;;0.10;0.10;;;;;;;19.22;nan;99899.81;5011303;28;20036;-81
2023/09/12 01:07:10;;;;;;;0.10;0.10;;;;;;;19.22;nan;99930.09;5013999;28;20546;-81
2023/09/12 01:09:35;;;;;;;0.10;0.10;;;;;;;;;;4995557;28;20033;-81
2023/09/12 01:12:03;;;;;;;0.10;0.10;;;;;;;19.27;nan;99924.06;5015959;28;20026;-79
2023/09/12 01:14:30;;;;;;;0.10;0.10;;;;;;;19.30;nan;99908.34;5024225;28;20230;-81
2023/09/12 01:16:56;;;;;;;0.10;0.10;;;;;;;19.34;nan;99913.28;5000244;28;20045;-81
2023/09/12 01:19:22;;;;;;;0.10;0.10;;;;;;;19.34;nan;100015.97;5011454;28;20041;-81
2023/09/12 01:22:11;;;;;;;0.10;0.10;;;;;;;19.35;nan;99888.91;5025840;28;20092;-82
2023/09/12 01:25:03;;;;;;;0.10;0.10;;;;;;;;;;5027400;28;20030;-80
2023/09/12 01:27:48;;;;;;;0.10;0.10;;;;;;;19.42;nan;99980.81;5011743;28;20045;-82
2023/09/12 01:30:15;;;;;;;0.10;0.10;;;;;;;;;;5017721;28;20049;-81
2023/09/12 01:32:41;;;;;;;0.08;0.08;;;;;;;;;;5004687;28;20021;-80
2023/09/12 01:35:06;;;;;;;0.10;0.10;;;;;;;;;;5025866;28;20060;-81
2023/09/12 01:37:32;;;;;;;0.10;0.10;;;;;;;19.53;nan;99874.69;5030945;28;20029;-81
2023/09/12 01:39:58;;;;;;;0.10;0.10;;;;;;;19.58;nan;99995.50;5022278;28;20032;-82
2023/09/12 01:42:27;;;;;;;0.10;0.10;;;;;;;19.65;nan;99923.81;5019973;28;20053;-82
2023/09/12 01:44:55;;;;;;;0.10;0.10;;;;;;;;;;5020056;28;20118;-80
2023/09/12 01:47:22;;;;;;;0.10;0.10;;;;;;;19.80;nan;99863.59;5005458;28;20061;-80
2023/09/12 01:49:53;;;;;;;0.10;0.10;;;;;;;19.80;nan;99875.16;5012838;28;20072;-82
2023/09/12 01:52:19;;;;;;;0.10;0.10;;;;;;;;;;5028334;28;20521;-80
2023/09/12 01:54:45;;;;;;;0.10;0.10;;;;;;;;;;5035588;28;20033;-80
2023/09/12 01:57:12;;;;;;;0.10;0.10;;;;;;;19.86;nan;99889.53;5042129;28;20045;-82
2023/09/12 01:59:38;;;;;;;0.08;0.08;;;;;;;19.92;nan;99877.88;5033657;28;20033;-82
2023/09/12 02:02:03;;;;;;;0.10;0.10;;;;;;;;;;5041181;28;20080;-81
2023/09/12 02:04:28;;;;;;;0.10;0.10;;;;;;;20.03;nan;99860.19;5029619;28;20046;-81
2023/09/12 02:06:53;;;;;;;0.10;0.10;;;;;;;;;;5034744;28;20041;-82
2023/09/12 02:09:18;;;;;;;0.10;0.10;;;;;;;19.94;nan;99962.47;5039510;28;20409;-82
2023/09/12 02:11:44;;;;;;;0.10;0.10;;;;;;;;;;5033929;28;20030;-81
2023/09/12 02:14:10;;;;;;;0.10;0.10;;;;;;;;;;5035183;28;20363;-81
2023/09/12 02:16:39;;;;;;;0.10;0.10;;;;;;;19.74;nan;99865.34;5026860;28;20064;-81
2023/09/12 02:19:05;;;;;;;0.10;0.10;;;;;;;19.68;nan;99920.72;5027369;28;20435;-82
2023/09/12 02:21:31;;;;;;;0.10;0.10;;;;;;;19.60;nan;99847.78;5040708;28;20040;-81
2023/09/12 02:23:56;;;;;;;0.10;0.10;;;;;;;19.56;nan;99858.13;5039922;28;20128;-81
2023/09/12 02:26:21;;;;;;;0.10;0.10;;;;;;;;;;5028925;28;20041;-81
2023/09/12 02:28:46;;;;;;;0.10;0.10;;;;;;;;;;5029741;28;20305;-82
2023/09/12 02:31:11;;;;;;;0.10;0.10;;;;;;;;;;5024028;28;20483;-83
2023/09/12 02:33:40;;;;;;;0.10;0.10;;;;;;;19.38;nan;99922.50;5022697;28;20152;-83
2023/09/12 02:36:05;;;;;;;0.10;0.10;;;;;;;;;;5037875;28;20115;-83
2023/09/12 02:38:31;;;;;;;0.10;0.10;;;;;;;19.16;nan;99874.69;5030037;28;20447;-81
2023/09/12 02:40:56;;;;;;;0.10;0.10;;;;;;;19.04;nan;99860.41;5017617;28;20076;-80
2023/09/12 02:43:21;;;;;;;0.10;0.10;;;;;;;;;;5014111;28;20037;-81
2023/09/12 02:45:47;;;;;;;0.10;0.10;;;;;;;18.92;nan;99846.94;5036629;28;20049;-81
2023/09/12 02:48:12;;;;;;;0.10;0.10;;;;;;;;;;5036871;28;20494;-81
2023/09/12 02:50:37;;;;;;;0.10;0.10;;;;;;;18.86;nan;99854.03;5016903;28;20114;-79
2023/09/12 02:53:02;;;;;;;0.10;0.10;;;;;;;;;;5030716;28;20033;-80
2023/09/12 02:55:28;;;;;;;0.10;0.10;;;;;;;18.68;nan;99851.28;5025522;28;20037;-79
2023/09/12 02:57:53;;;;;;;0.10;0.10;;;;;;;;;;5020924;28;20041;-80
2023/09/12 03:00:19;;;;;;;0.10;0.10;;;;;;;;;;5033429;28;20303;-80
2023/09/12 03:02:45;;;;;;;0.10;0.10;;;;;;;;;;5033825;28;20475;-80
2023/09/12 03:05:10;;;;;;;0.10;0.10;;;;;;;18.56;nan;99874.47;5033743;28;20072;-80
2023/09/12 03:07:35;;;;;;;0.10;0.10;;;;;;;;;;5011417;28;20213;-80
2023/09/12 03:10:00;;;;;;;0.10;0.10;;;;;;;;;;5028761;28;20033;-81
2023/09/12 03:12:25;;;;;;;0.10;0.10;;;;;;;;;;5046065;28;20170;-80
2023/09/12 03:14:50;;;;;;;0.10;0.10;;;;;;;;;;5023131;28;20049;-80
2023/09/12 03:17:16;;;;;;;0.10;0.10;;;;;;;;;;5056016;28;20700;-81
2023/09/12 03:19:41;;;;;;;0.10;0.10;;;;;;;;;;5036062;28;20192;-81
2023/09/12 03:22:06;;;;;;;0.10;0.10;;;;;;;18.90;nan;99867.78;5052829;28;20502;-79
2023/09/12 03:24:31;;;;;;;0.10;0.10;;;;;;;;;;5055406;28;20048;-80
2023/09/12 03:26:56;;;;;;;0.10;0.10;;;;;;;;;;5052228;28;20382;-82
2023/09/12 03:29:22;;;;;;;0.10;0.10;;;;;;;;;;5048683;28;20441;-81
2023/09/12 03:31:48;;;;;;;0.10;0.10;;;;;;;18.75;nan;99894.91;5055138;28;20263;-81
2023/09/12 03:34:13;;;;;;;0.08;0.08;;;;;;;18.72;nan;99863.22;5057033;28;20097;-81
2023/09/12 03:36:38;;;;;;;0.10;0.10;;;;;;;;;;5037414;28;20029;-81
2023/09/12 03:39:08;;;;;;;0.10;0.10;;;;;;;18.80;nan;99812.03;5054580;28;20363;-83
2023/09/12 03:41:34;;;;;;;0.10;0.10;;;;;;;18.82;nan;99798.44;5054145;28;20080;-82
2023/09/12 03:43:59;;;;;;;0.10;0.10;;;;;;;18.77;nan;99846.50;5036293;28;20036;-82
2023/09/12 03:46:24;;;;;;;0.10;0.10;;;;;;;;;;5053810;28;20033;-82
2023/09/12 03:48:49;;;;;;;0.10;0.10;;;;;;;;;;5034987;28;20389;-80
2023/09/12 03:51:15;;;;;;;0.10;0.10;;;;;;;;;;5031175;28;20421;-82
2023/09/12 03:53:40;;;;;;;0.10;0.10;;;;;;;;;;5058062;28;20286;-81
2023/09/12 03:56:05;;;;;;;0.10;0.10;;;;;;;;;;5056677;28;20506;-82
2023/09/12 03:58:31;;;;;;;0.10;0.10;;;;;;;;;;5057596;28;20041;-82
2023/09/12 04:00:56;;;;;;;0.10;0.10;;;;;;;18.81;nan;99858.41;5057448;28;20029;-82
2023/09/12 04:03:22;;;;;;;0.10;0.10;;;;;;;18.83;nan;99924.13;5053610;28;20064;-81
2023/09/12 04:05:47;;;;;;;0.05;0.05;;;;;;;18.89;nan;99837.50;5057195;28;20060;-82
2023/09/12 04:08:12;;;;;;;0.10;0.10;;;;;;;;;;5056617;28;20498;-81
2023/09/12 04:10:38;;;;;;;0.10;0.10;;;;;;;19.07;nan;99833.19;5057876;28;20033;-82
2023/09/12 04:13:03;;;;;;;0.10;0.10;;;;;;;;;;5038916;28;20112;-81
2023/09/12 04:15:28;;;;;;;0.10;0.10;;;;;;;19.18;nan;99882.53;5047777;28;20063;-83
2023/09/12 04:17:53;;;;;;;0.10;0.10;;;;;;;;;;5057064;28;20032;-81
2023/09/12 04:20:18;;;;;;;0.10;0.10;;;;;;;;;;5047052;28;20033;-80
2023/09/12 04:22:44;;;;;;;0.10;0.10;;;;;;;;;;5042567;28;20126;-82
2023/09/12 04:25:09;;;;;;;0.03;0.03;;;;;;;;;;5047704;28;20044;-82
2023/09/12 04:27:34;;;;;;;0.00;0.00;;;;;;;19.29;nan;99898.69;5050998;28;20406;-80
2023/09/12 04:29:59;;;;;;;0.10;0.10;;;;;;;;;;5051473;28;20110;-81
2023/09/12 04:32:25;;;;;;;;;;;;;;;19.31;nan;99893.09;5043427;28;20571;-81
2023/09/12 04:34:50;;;;;;;0.10;0.10;;;;;;;19.30;nan;99903.00;5051724;28;19916;-81
2023/09/12 04:37:16;;;;;;;0.00;0.00;;;;;;;19.33;nan;99879.47;5051212;28;20124;-80
2023/09/12 04:39:41;;;;;;;0.10;0.10;;;;;;;;;;5047782;28;20029;-81
2023/09/12 04:42:06;;;;;;;0.10;0.10;;;;;;;19.22;nan;99862.28;5033001;28;20048;-83
2023/09/12 04:44:35;;;;;;;0.10;0.10;;;;;;;;;;5031902;28;20084;-81
2023/09/12 04:47:02;;;;;;;0.10;0.10;;;;;;;19.20;nan;99900.03;5047206;28;20306;-81
2023/09/12 04:49:28;;;;;;;0.10;0.10;;;;;;;19.17;nan;99891.63;5036005;28;20367;-79
2023/09/12 04:51:53;;;;;;;0.10;0.10;;;;;;;19.14;nan;99897.41;5054945;28;20035;-79
2023/09/12 04:54:18;;;;;;;0.10;0.10;;;;;;;;;;5044513;28;20029;-80
2023/09/12 04:56:43;;;;;;;0.10;0.10;;;;;;;19.18;nan;99894.06;5051882;28;20291;-80
2023/09/12 04:59:09;;;;;;;0.10;0.10;;;;;;;19.23;nan;99912.97;5055092;28;20040;-80
2023/09/12 05:01:34;;;;;;;0.10;0.10;;;;;;;;;;5048633;28;20499;-83
2023/09/12 05:03:59;;;;;;;0.10;0.10;;;;;;;;;;5033118;28;20279;-80
2023/09/12 05:06:25;;;;;;;0.10;0.10;;;;;;;19.24;nan;99895.06;5041714;28;20271;-80
2023/09/12 05:08:50;;;;;;;0.10;0.10;;;;;;;19.26;nan;99901.00;5043391;28;20055;-83
2023/09/12 05:11:15;;;;;;;0.10;0.10;;;;;;;19.28;nan;99921.19;5048939;28;20045;-82
2023/09/12 05:13:41;;;;;;;0.10;0.10;;;;;;;19.28;nan;99939.09;5046477;28;20335;-81
2023/09/12 05:16:06;;;;;;;0.10;0.10;;;;;;;;;;5044699;28;20052;-81
2023/09/12 05:18:31;;;;;;;0.10;0.10;;;;;;;19.31;nan;99891.25;5050460;28;20091;-81
2023/09/12 05:20:56;;;;;;;;;;;;;;;19.34;nan;99891.84;5033493;28;20025;-82
2023/09/12 05:23:22;;;;;;;;;;;;;;;19.33;nan;99874.94;5032881;28;20323;-81
2023/09/12 05:25:47;;;;;;;;;;;;;;;19.35;nan;99888.09;5050045;28;19923;-80
2023/09/12 05:28:15;;;;;;;0.10;0.10;;;;;;;;;;5042308;28;19967;-80
2023/09/12 05:30:41;;;;;;;0.10;0.10;;;;;;;19.42;nan;99897.69;5053125;28;20033;-83
2023/09/12 05:33:07;;;;;;;0.10;0.10;;;;;;;19.42;nan;99900.38;5050469;28;20353;-81
2023/09/12 05:35:32;;;;;;;0.10;0.10;;;;;;;19.40;nan;99858.75;5049453;28;20521;-82
2023/09/12 05:37:57;;;;;;;0.10;0.10;;;;;;;;;;5037766;28;20047;-84
2023/09/12 05:40:22;;;;;;;0.10;0.10;;;;;;;;;;5048719;28;20919;-82
2023/09/12 05:42:47;;;;;;;0.03;0.03;;;;;;;;;;5028541;28;20057;-82
2023/09/12 05:45:13;;;;;;;0.10;0.10;;;;;;;19.52;nan;99906.03;5046710;28;20344;-81
2023/09/12 05:47:38;;;;;;;0.10;0.10;;;;;;;;;;5044105;28;20029;-82
2023/09/12 05:50:06;;;;;;;0.10;0.10;;;;;;;;;;5033785;28;20115;-83
2023/09/12 05:52:32;;;;;;;0.10;0.10;;;;;;;;;;5043942;28;20061;-81
2023/09/12 05:54:57;;;;;;;0.10;0.10;;;;;;;19.70;nan;99936.59;5043610;28;20044;-82
2023/09/12 05:57:23;;;;;;;0.10;0.10;;;;;;;19.78;nan;99936.25;5044392;28;20055;-83
2023/09/12 05:59:48;;;;;;;0.10;0.10;;;;;;;19.91;nan;99940.66;5046923;28;20440;-83
2023/09/12 06:02:14;;;;;;;0.10;0.10;;;;;;;;;;5028923;28;20085;-83
2023/09/12 06:04:39;;;;;;;0.10;0.10;;;;;;;;;;5033979;28;20813;-83
2023/09/12 06:07:04;;;;;;;0.10;0.10;;;;;;;20.27;nan;99931.66;5052303;28;20257;-83
2023/09/12 06:09:29;;;;;;;;;;;;;;;20.37;nan;99928.41;5033830;28;20386;-82
2023/09/12 06:11:55;;;;;;;;;;;;;;;20.42;nan;99930.38;5053135;28;19917;-81
2023/09/12 06:14:20;;;;;;;;;;;;;;;20.46;nan;99932.38;5036910;28;20339;-85
2023/09/12 06:16:45;;;;;;;;;;;;;;;20.52;nan;99931.47;5027839;28;20297;-82
2023/09/12 06:19:10;;;;;;;;;;;;;;;20.75;nan;99940.63;5060451;28;19923;-84
2023/09/12 06:21:36;;;;;;;;;;;;;;;21.11;nan;99946.81;5024642;28;19972;-83
2023/09/12 06:24:09;;;;;;;;;;;;;;;21.25;nan;99940.13;5053082;28;20252;-83
2023/09/12 06:26:35;;;;;;;;;;;;;;;21.16;nan;99938.84;5051998;28;19913;-84
2023/09/12 06:29:00;;;;;;;;;;;;;;;21.16;nan;99941.53;5053238;28;19923;-83
2023/09/12 06:31:25;;;;;;;;;;;;;;;21.06;nan;99942.13;5051744;28;20424;-82
2023/09/12 06:33:50;;;;;;;;;;;;;;;20.99;nan;99931.50;5047738;28;19923;-83
2023/09/12 06:36:15;;;;;;;;;;;;;;;21.00;nan;99925.09;5045272;28;19956;-81
2023/09/12 06:38:40;;;;;;;;;;;;;;;21.00;nan;99922.41;5040923;28;20308;-82
2023/09/12 06:41:06;;;;;;;;;;;;;;;21.10;nan;99923.69;5046157;28;19917;-81
2023/09/12 06:43:31;;;;;;;;;;;;;;;21.40;nan;99916.28;5048925;28;19922;-83
2023/09/12 06:45:56;;;;;;;;;;;;;;;21.70;nan;99931.38;5052822;28;19920;-81
2023/09/12 06:48:21;;;;;;;;;;;;;;;21.80;nan;99934.25;5045414;28;20350;-82
2023/09/12 06:50:46;;;;;;;;;;;;;;;21.81;nan;99943.19;5052537;28;20007;-81
2023/09/12 06:53:12;;;;;;;;;;;;;;;22.14;nan;99947.78;5052216;28;19924;-81
2023/09/12 06:55:37;;;;;;;;;;;;;;;22.71;nan;99963.06;5060685;28;19916;-81
2023/09/12 06:58:03;;;;;;;;;;;;;;;23.28;nan;99978.22;5055530;28;19923;-82
2023/09/12 07:00:28;;;;;;;;;;;;;;;;;;5037658;28;20012;-83
2023/09/12 07:02:53;;;;;;;;;;;;;;;23.70;nan;99980.38;5044682;28;19971;-83
2023/09/12 07:05:18;;;;;;;;;;;;;;;24.40;nan;99977.88;5035227;28;20402;-81
2023/09/12 07:07:43;;;;;;;;;;;;;;;24.99;nan;99975.13;5050054;28;20283;-80
2023/09/12 07:10:09;;;;;;;;;;;;;;;25.43;nan;99975.69;5046685;28;19955;-81
2023/09/12 07:12:34;;;;;;;;;;;;;;;25.76;nan;99994.47;5047457;28;19912;-81
2023/09/12 07:14:59;;;;;;;;;;;;;;;25.87;nan;99996.19;5056723;28;19992;-81
2023/09/12 07:17:27;;;;;;;;;;;;;;;25.97;nan;100006.22;5053025;28;20008;-79
2023/09/12 07:19:52;;;;;;;;;;;;;;;26.18;nan;99998.97;5048424;28;19916;-81
2023/09/12 07:22:17;;;;;;;;;;;;;;;26.40;nan;99998.72;5055653;28;19921;-81
2023/09/12 07:24:43;;;;;;;;;;;;;;;26.55;nan;100006.06;5054073;28;19925;-82
2023/09/12 07:27:08;;;;;;;;;;;;;;;26.78;nan;99997.41;5057368;28;19925;-83
2023/09/12 07:29:33;;;;;;;;;;;;;;;27.11;nan;99997.91;5054188;28;20289;-81
2023/09/12 07:31:58;;;;;;;;;;;;;;;27.38;nan;99981.28;5036402;28;19916;-81
2023/09/12 07:34:23;;;;;;;;;;;;;;;27.63;nan;100010.28;5055717;28;19919;-84
2023/09/12 07:36:51;;;;;;;;;;;;;;;27.91;nan;100008.81;5056377;28;19924;-82
2023/09/12 07:39:16;;;;;;;;;;;;;;;28.20;nan;100007.28;5037653;28;19971;-83
2023/09/12 07:41:41;;;;;;;;;;;;;;;28.38;nan;99995.72;5050484;28;19925;-83
2023/09/12 07:44:10;;;;;;;;;;;;;;;28.49;nan;99993.78;5051758;28;19925;-83
2023/09/12 07:46:36;;;;;;;;;;;;;;;28.84;nan;100011.72;5052477;28;20075;-84
2023/09/12 07:49:01;;;;;;;;;;;;;;;29.20;nan;100009.50;5043081;28;19916;-81
2023/09/12 07:51:26;;;;;;;;;;;;;;;29.47;nan;100007.31;5030479;28;19921;-82
2023/09/12 07:53:51;;;;;;;;;;;;;;;29.77;nan;100008.84;5040199;28;19913;-82
2023/09/12 07:56:16;;;;;;;;;;;;;;;29.72;nan;99987.91;5029187;28;19936;-81
2023/09/12 07:58:41;;;;;;;;;;;;;;;29.73;nan;99999.66;5045422;28;19920;-81
2023/09/12 08:01:08;;;;;;;;;;;;;;;29.99;nan;99997.41;5039784;28;20010;-83
2023/09/12 08:03:38;;;;;;;;;;;;;;;30.19;nan;100001.72;5050388;28;19952;-83
2023/09/12 08:06:03;;;;;;;;;;;;;;;30.21;nan;100004.97;5030942;28;19917;-83
2023/09/12 08:08:29;;;;;;;;;;;;;;;30.40;nan;100007.72;5043438;28;20002;-83
2023/09/12 08:10:54;;;;;;;;;;;;;;;30.75;nan;100013.69;5039864;28;19917;-85
2023/09/12 08:13:19;;;;;;;;;;;;;;;31.10;nan;100015.00;5051169;28;20078;-83
2023/09/12 08:15:44;;;;;;;;;;;;;;;31.40;nan;100005.47;5052350;28;19943;-83
2023/09/12 08:18:10;;;;;;;;;;;;;;;31.91;nan;100007.09;5051966;28;19917;-85
2023/09/12 08:20:35;;;;;;;;;;;;;;;32.34;nan;100017.66;5052009;28;19923;-82
2023/09/12 08:23:00;;;;;;;;;;;;;;;32.67;nan;100020.16;5052245;28;19921;-82
2023/09/12 08:25:32;;;;;;;;;;;;;;;33.02;nan;100011.38;5052013;28;19916;-81
2023/09/12 08:27:58;;;;;;;;;;;;;;;33.34;nan;100002.00;5049904;28;19916;-83
2023/09/12 08:30:23;;;;;;;;;;;;;;;33.54;nan;100014.34;5051151;28;19924;-84
2023/09/12 08:32:48;;;;;;;;;;;;;;;33.66;nan;100009.06;5053799;28;19921;-84
2023/09/12 08:35:14;;;;;;;;;;;;;;;33.77;nan;100010.38;5059930;28;20414;-81
2023/09/12 08:37:42;;;;;;;;;;;;;;;33.94;nan;100026.03;5052780;28;20377;-82
2023/09/12 08:40:08;;;;;;;;;;;;;;;34.24;nan;100013.34;5053394;28;20022;-82
2023/09/12 08:42:40;;;;;;;;;;;;;;;34.71;nan;100020.91;5051439;28;19968;-84
2023/09/12 08:45:05;;;;;;;;;;;;;;;35.08;nan;100015.78;5051146;28;20416;-83
2023/09/12 08:47:32;;;;;;;;;;;;;;;35.37;nan;100020.53;5037681;28;19912;-84
2023/09/12 08:49:58;;;;;;;;;;;;;;;35.44;nan;100015.34;5052717;28;20267;-84
2023/09/12 08:52:23;;;;;;;;;;;;;;;35.80;nan;100022.25;5046863;28;19944;-83
2023/09/12 08:54:48;;;;;;;;;;;;;;;36.11;nan;100019.19;5034652;28;19921;-83
2023/09/12 08:57:14;;;;;;;;;;;;;;;36.54;nan;100023.50;5036261;28;19920;-83
2023/09/12 08:59:40;;;;;;;;;;;;;;;36.73;nan;100019.44;5051621;28;20226;-85
2023/09/12 09:02:07;;;;;;;;;;;;;;;36.71;nan;100024.50;5050210;28;19921;-84
2023/09/12 09:04:32;;;;;;;;;;;;;;;36.74;nan;100021.84;5025069;28;19920;-84
2023/09/12 09:06:59;;;;;;;;;;;;;;;36.60;nan;100020.56;5050089;28;19916;-85
2023/09/12 09:09:24;;;;;;;;;;;;;;;36.56;nan;100014.88;5044859;28;20290;-84
2023/09/12 09:11:49;;;;;;;;;;;;;;;36.78;nan;100014.53;5053760;28;19928;-83
2023/09/12 09:14:15;;;;;;;;;;;;;;;36.89;nan;100017.63;5054368;28;19923;-83
2023/09/12 09:16:40;;;;;;;;;;;;;;;37.06;nan;100004.81;5049180;28;19944;-82
2023/09/12 09:19:09;;;;;;;;;;;;;;;37.28;nan;100009.09;5048659;28;20096;-84
2023/09/12 09:21:35;;;;;;;;;;;;;;;37.19;nan;99998.19;5050886;28;19917;-84
2023/09/12 09:24:01;;;;;;;;;;;;;;;37.07;nan;100006.44;5050571;28;19917;-84
2023/09/12 09:26:40;;;;;;;;;;;;;;;36.86;nan;100012.81;5050301;28;19927;-83
2023/09/12 09:29:07;;;;;;;;;;;;;;;37.10;nan;100019.53;5041256;28;19927;-84
2023/09/12 09:31:34;;;;;;;;;;;;;;;37.40;nan;100018.19;5034166;28;19924;-83
2023/09/12 09:33:59;;;;;;;;;;;;;;;37.61;nan;100011.75;5046232;28;19971;-85
2023/09/12 09:36:25;;;;;;;;;;;;;;;38.06;nan;100012.72;5047093;28;20329;-82
2023/09/12 09:38:50;;;;;;;;;;;;;;;38.25;nan;100010.09;5038811;28;19917;-81
2023/09/12 09:41:19;;;;;;;;;;;;;;;38.33;nan;100002.81;5058118;28;19917;-83
2023/09/12 09:43:44;;;;;;;;;;;;;;;38.40;nan;100003.84;5052823;28;20024;-82
2023/09/12 09:46:14;;;;;;;;;;;;;;;38.43;nan;100007.84;5050143;28;19960;-81
2023/09/12 09:48:48;;;;;;;;;;;;;;;38.66;nan;100003.41;5037672;28;19927;-82
2023/09/12 09:51:13;;;;;;;;;;;;;;;38.83;nan;100002.25;5054510;28;19924;-80
2023/09/12 09:53:39;;;;;;;;;;;;;;;38.86;nan;100001.53;5054218;28;19932;-82
2023/09/12 09:56:09;;;;;;;;;;;;;;;38.88;nan;100007.50;5053760;28;19917;-83
2023/09/12 09:58:34;;;;;;;;;;;;;;;38.82;nan;100000.63;5051865;28;19924;-82
2023/09/12 10:01:00;;;;;;;;;;;;;;;38.60;nan;99993.75;5052597;28;19916;-81
2023/09/12 10:03:28;;;;;;;;;;;;;;;38.82;nan;100003.41;5055599;28;20275;-81
2023/09/12 10:05:55;;;;;;;;;;;;;;;38.77;nan;100000.91;5053435;28;19925;-81
2023/09/12 10:08:21;;;;;;;;;;;;;;;38.88;nan;99999.22;5053658;28;19967;-83
2023/09/12 10:10:47;;;;;;;;;;;;;;;38.84;nan;99994.75;5056361;28;20008;-83
2023/09/12 10:13:14;;;;;;;;;;;;;;;38.79;nan;99990.28;5062477;28;20135;-81
2023/09/12 10:15:40;;;;;;;;;;;;;;;39.15;nan;99984.88;5053701;28;19923;-81
2023/09/12 10:18:08;;;;;;;;;;;;;;;39.03;nan;99977.50;5053999;28;19921;-82
2023/09/12 10:20:36;;;;;;;;;;;;;;;38.58;nan;99976.72;5043948;28;19982;-82
2023/09/12 10:23:14;;;;;;;;;;;;;;;37.64;nan;99975.19;5057885;28;19947;-83
2023/09/12 10:25:40;;;;;;;;;;;;;;;37.37;nan;99983.00;5063099;28;19940;-83
2023/09/12 10:28:06;;;;;;;;;;;;;;;38.11;nan;99977.38;5068483;28;19924;-82
2023/09/12 10:30:32;;;;;;;;;;;;;;;38.84;nan;99986.47;5060821;28;19991;-83
2023/09/12 10:32:57;;;;;;;;;;;;;;;39.32;nan;99978.97;5051964;28;20310;-83
2023/09/12 10:35:22;;;;;;;;;;;;;;;38.79;nan;99979.25;5057524;28;19916;-81
2023/09/12 10:37:48;;;;;;;;;;;;;;;38.02;nan;99980.28;5058430;28;19999;-84
2023/09/12 10:40:15;;;;;;;;;;;;;;;38.20;nan;99980.00;5052492;28;19970;-83
2023/09/12 10:42:40;;;;;;;;;;;;;;;38.80;nan;99985.56;5057302;28;19983;-84
2023/09/12 10:45:07;;;;;;;;;;;;;;;39.10;nan;99972.13;5059586;28;20390;-83
2023/09/12 10:47:33;;;;;;;;;;;;;;;39.27;nan;99976.47;5057784;28;19920;-83
2023/09/12 10:49:59;;;;;;;;;;;;;;;39.11;nan;99983.97;5057264;28;20014;-82
2023/09/12 10:52:25;;;;;;;;;;;;;;;39.28;nan;99983.59;5052276;28;21016;-83
2023/09/12 10:54:51;;;;;;;;;;;;;;;39.55;nan;99981.91;5055918;28;19916;-82
2023/09/12 10:57:16;;;;;;;;;;;;;;;39.33;nan;99983.34;5038541;28;20350;-83
2023/09/12 10:59:59;;;;;;;;;;;;;;;39.61;nan;99990.72;5055103;28;20031;-81
2023/09/12 11:02:32;;;;;;;;;;;;;;;39.63;nan;99977.31;5044168;28;19921;-84
2023/09/12 11:05:00;;;;;;;;;;;;;;;38.01;nan;99983.41;5056562;28;19948;-84
2023/09/12 11:07:37;;;;;;;;;;;;;;;36.18;nan;99974.56;5041897;28;19967;-82
2023/09/12 11:10:15;;;;;;;;;;;;;;;34.65;nan;99962.59;5053134;28;19924;-83
2023/09/12 11:12:41;;;;;;;;;;;;;;;33.46;nan;99954.81;5051310;28;20011;-81
2023/09/12 11:15:06;;;;;;;;;;;;;;;32.76;nan;99960.00;5038836;28;19959;-82
2023/09/12 11:17:37;;;;;;;;;;;;;;;32.96;nan;99937.53;5048265;28;20015;-82
2023/09/12 11:20:08;;;;;;;;;;;;;;;34.90;nan;99957.38;5053365;28;19924;-81
2023/09/12 11:22:34;;;;;;;;;;;;;;;36.75;nan;99962.84;5054976;28;19921;-81
2023/09/12 11:25:05;;;;;;;;;;;;;;;38.24;nan;99959.59;5052884;28;19964;-82
2023/09/12 11:27:31;;;;;;;;;;;;;;;38.90;nan;99965.66;5053629;28;19924;-81
2023/09/12 11:30:03;;;;;;;;;;;;;;;39.51;nan;99953.34;5054512;28;20004;-81
2023/09/12 11:32:32;;;;;;;;;;;;;;;40.07;nan;99958.50;5055412;28;19939;-81
2023/09/12 11:34:59;;;;;;;;;;;;;;;40.01;nan;99962.72;5054218;28;19917;-81
2023/09/12 11:37:25;;;;;;;;;;;;;;;39.71;nan;99952.22;5048233;28;19917;-83
2023/09/12 11:39:52;;;;;;;;;;;;;;;39.65;nan;99958.38;5051241;28;20023;-81
2023/09/12 11:42:18;;;;;;;;;;;;;;;40.05;nan;99957.28;5041648;28;19928;-83
2023/09/12 11:44:44;;;;;;;;;;;;;;;39.76;nan;99953.06;5052961;28;19916;-84
2023/09/12 11:47:10;;;;;;;;;;;;;;;39.22;nan;99952.66;5039561;28;20071;-84
2023/09/12 11:49:37;;;;;;;;;;;;;;;38.46;nan;99949.16;5056673;28;20317;-83
2023/09/12 11:52:02;;;;;;;;;;;;;;;37.92;nan;99946.81;5047113;28;19913;-83
2023/09/12 11:54:29;;;;;;;;;;;;;;;37.68;nan;99942.97;5052829;28;19923;-86
2023/09/12 11:56:59;;;;;;;;;;;;;;;37.56;nan;99940.25;5035738;28;19912;-83
2023/09/12 11:59:24;;;;;;;;;;;;;;;36.87;nan;99947.47;5035240;28;20281;-83
2023/09/12 12:01:49;;;;;;;;;;;;;;;36.53;nan;99942.00;5053126;28;19924;-84
2023/09/12 12:04:15;;;;;;;;;;;;;;;36.27;nan;99933.22;5035158;28;20478;-82
2023/09/12 12:06:41;;;;;;;;;;;;;;;36.15;nan;99939.47;5052299;28;19975;-85
2023/09/12 12:09:06;;;;;;;;;;;;;;;35.76;nan;99944.31;5052682;28;19913;-86
2023/09/12 12:11:32;;;;;;;;;;;;;;;35.40;nan;99939.38;5036919;28;19913;-83
2023/09/12 12:13:57;;;;;;;;;;;;;;;35.24;nan;99941.88;5046721;28;20004;-83
2023/09/12 12:16:22;;;;;;;;;;;;;;;35.03;nan;99939.03;5055966;28;19928;-82
2023/09/12 12:18:47;;;;;;;;;;;;;;;34.96;nan;99933.25;5050729;28;19913;-82
2023/09/12 12:21:13;;;;;;;;;;;;;;;35.06;nan;99925.47;5041449;28;19917;-84
2023/09/12 12:23:38;;;;;;;;;;;;;;;35.10;nan;99917.38;5033537;28;19980;-82
2023/09/12 12:26:05;;;;;;;;;;;;;;;35.04;nan;99929.66;5048339;28;19917;-82
2023/09/12 12:28:31;;;;;;;;;;;;;;;34.76;nan;99924.63;5048812;28;19921;-82
2023/09/12 12:30:56;;;;;;;;;;;;;;;34.56;nan;99915.09;5039865;28;19994;-82
2023/09/12 12:33:21;;;;;;;;;;;;;;;34.46;nan;99927.25;5049992;28;19923;-83
2023/09/12 12:35:47;;;;;;;;;;;;;;;34.40;nan;99917.59;5049929;28;19964;-82
2023/09/12 12:38:12;;;;;;;;;;;;;;;34.35;nan;99915.03;5048200;28;20205;-82
2023/09/12 12:40:40;;;;;;;;;;;;;;;34.18;nan;99915.03;5044936;28;19947;-82
2023/09/12 12:43:06;;;;;;;;;;;;;;;34.04;nan;99907.78;5057575;28;19931;-83
2023/09/12 12:45:31;;;;;;;;;;;;;;;33.91;nan;99903.25;5040467;28;20015;-83
2023/09/12 12:48:00;;;;;;;;;;;;;;;33.88;nan;99912.13;5057094;28;19913;-81
2023/09/12 12:50:25;;;;;;;;;;;;;;;33.89;nan;99908.25;5036368;28;19916;-82
2023/09/12 12:52:51;;;;;;;;;;;;;;;33.95;nan;99906.16;5057485;28;19920;-82
2023/09/12 12:55:19;;;;;;;;;;;;;;;33.94;nan;99899.84;5052259;28;19948;-81
2023/09/12 12:57:44;;;;;;;;;;;;;;;33.80;nan;99899.22;5053376;28;19937;-82
2023/09/12 13:00:10;;;;;;;;;;;;;;;33.67;nan;99895.50;5056724;28;20420;-81